sensor_id;sensor_type;location;lat;lon;timestamp;P1;durP1;ratioP1;P2;durP2;ratioP2
29362;SDS011;16349;53.672;10.014;2023-04-25T00:01:02;8.77;;;3.73;;
29362;SDS011;16349;53.672;10.014;2023-04-25T00:03:30;8.27;;;4.23;;
29362;SDS011;16349;53.672;10.014;2023-04-25T00:05:57;9.37;;;3.97;;
29362;SDS011;16349;53.672;10.014;2023-04-25T00:08:27;10.93;;;4.50;;
29362;SDS011;16349;53.672;10.014;2023-04-25T00:10:56;15.43;;;5.07;;
29362;SDS011;16349;53.672;10.014;2023-04-25T00:13:23;7.40;;;3.97;;
29362;SDS011;16349;53.672;10.014;2023-04-25T00:15:50;9.93;;;3.50;;
29362;SDS011;16349;53.672;10.014;2023-04-25T00:18:18;11.27;;;3.47;;
29362;SDS011;16349;53.672;10.014;2023-04-25T00:20:45;11.33;;;3.53;;
29362;SDS011;16349;53.672;10.014;2023-04-25T00:23:12;9.53;;;2.87;;
29362;SDS011;16349;53.672;10.014;2023-04-25T00:25:42;9.93;;;3.07;;
29362;SDS011;16349;53.672;10.014;2023-04-25T00:28:11;13.07;;;2.53;;
29362;SDS011;16349;53.672;10.014;2023-04-25T00:30:38;13.47;;;3.30;;
29362;SDS011;16349;53.672;10.014;2023-04-25T00:33:06;16.93;;;4.13;;
29362;SDS011;16349;53.672;10.014;2023-04-25T00:35:34;10.97;;;3.10;;
29362;SDS011;16349;53.672;10.014;2023-04-25T00:38:01;18.00;;;3.47;;
29362;SDS011;16349;53.672;10.014;2023-04-25T00:40:28;16.67;;;3.17;;
29362;SDS011;16349;53.672;10.014;2023-04-25T00:42:56;11.63;;;3.57;;
29362;SDS011;16349;53.672;10.014;2023-04-25T00:45:24;17.23;;;3.33;;
29362;SDS011;16349;53.672;10.014;2023-04-25T00:47:55;14.13;;;2.90;;
29362;SDS011;16349;53.672;10.014;2023-04-25T00:50:22;10.93;;;3.30;;
29362;SDS011;16349;53.672;10.014;2023-04-25T00:52:50;14.47;;;3.10;;
29362;SDS011;16349;53.672;10.014;2023-04-25T00:55:18;23.63;;;3.10;;
29362;SDS011;16349;53.672;10.014;2023-04-25T00:57:46;15.50;;;3.37;;
29362;SDS011;16349;53.672;10.014;2023-04-25T01:00:14;14.60;;;3.00;;
29362;SDS011;16349;53.672;10.014;2023-04-25T01:02:44;12.97;;;2.63;;
29362;SDS011;16349;53.672;10.014;2023-04-25T01:05:11;8.60;;;3.03;;
29362;SDS011;16349;53.672;10.014;2023-04-25T01:07:38;14.10;;;3.60;;
29362;SDS011;16349;53.672;10.014;2023-04-25T01:10:06;12.63;;;4.07;;
29362;SDS011;16349;53.672;10.014;2023-04-25T01:12:34;13.83;;;3.30;;
29362;SDS011;16349;53.672;10.014;2023-04-25T01:15:02;15.60;;;3.57;;
29362;SDS011;16349;53.672;10.014;2023-04-25T01:17:29;8.27;;;2.97;;
29362;SDS011;16349;53.672;10.014;2023-04-25T01:19:57;13.43;;;3.50;;
29362;SDS011;16349;53.672;10.014;2023-04-25T01:22:26;11.70;;;3.83;;
29362;SDS011;16349;53.672;10.014;2023-04-25T01:24:53;17.73;;;3.57;;
29362;SDS011;16349;53.672;10.014;2023-04-25T01:27:21;12.23;;;3.00;;
29362;SDS011;16349;53.672;10.014;2023-04-25T01:29:48;17.17;;;3.57;;
29362;SDS011;16349;53.672;10.014;2023-04-25T01:32:16;16.17;;;3.43;;
29362;SDS011;16349;53.672;10.014;2023-04-25T01:34:44;18.23;;;3.43;;
29362;SDS011;16349;53.672;10.014;2023-04-25T01:37:35;20.73;;;3.07;;
29362;SDS011;16349;53.672;10.014;2023-04-25T01:40:03;14.07;;;3.37;;
29362;SDS011;16349;53.672;10.014;2023-04-25T01:42:31;21.17;;;3.73;;
29362;SDS011;16349;53.672;10.014;2023-04-25T01:44:59;16.40;;;3.27;;
29362;SDS011;16349;53.672;10.014;2023-04-25T01:47:26;15.93;;;3.30;;
29362;SDS011;16349;53.672;10.014;2023-04-25T01:49:54;17.10;;;3.73;;
29362;SDS011;16349;53.672;10.014;2023-04-25T01:52:21;19.53;;;3.20;;
29362;SDS011;16349;53.672;10.014;2023-04-25T01:54:49;11.10;;;3.57;;
29362;SDS011;16349;53.672;10.014;2023-04-25T01:57:18;13.20;;;3.23;;
29362;SDS011;16349;53.672;10.014;2023-04-25T01:59:44;15.80;;;3.23;;
29362;SDS011;16349;53.672;10.014;2023-04-25T02:02:20;12.00;;;4.10;;
29362;SDS011;16349;53.672;10.014;2023-04-25T02:04:46;17.90;;;3.30;;
29362;SDS011;16349;53.672;10.014;2023-04-25T02:07:14;10.90;;;3.50;;
29362;SDS011;16349;53.672;10.014;2023-04-25T02:09:52;12.07;;;2.73;;
29362;SDS011;16349;53.672;10.014;2023-04-25T02:12:21;20.90;;;3.13;;
29362;SDS011;16349;53.672;10.014;2023-04-25T02:15:13;14.97;;;2.87;;
29362;SDS011;16349;53.672;10.014;2023-04-25T02:17:47;13.23;;;3.17;;
29362;SDS011;16349;53.672;10.014;2023-04-25T02:20:15;18.30;;;3.10;;
29362;SDS011;16349;53.672;10.014;2023-04-25T02:22:42;17.70;;;3.27;;
29362;SDS011;16349;53.672;10.014;2023-04-25T02:25:11;10.33;;;3.30;;
29362;SDS011;16349;53.672;10.014;2023-04-25T02:27:38;12.73;;;3.30;;
29362;SDS011;16349;53.672;10.014;2023-04-25T02:30:07;14.07;;;3.63;;
29362;SDS011;16349;53.672;10.014;2023-04-25T02:32:34;14.50;;;3.73;;
29362;SDS011;16349;53.672;10.014;2023-04-25T02:35:01;15.47;;;3.53;;
29362;SDS011;16349;53.672;10.014;2023-04-25T02:37:29;15.53;;;3.30;;
29362;SDS011;16349;53.672;10.014;2023-04-25T02:39:56;13.90;;;3.40;;
29362;SDS011;16349;53.672;10.014;2023-04-25T02:42:24;15.37;;;3.10;;
29362;SDS011;16349;53.672;10.014;2023-04-25T02:44:52;18.50;;;3.57;;
29362;SDS011;16349;53.672;10.014;2023-04-25T02:47:19;10.17;;;2.60;;
29362;SDS011;16349;53.672;10.014;2023-04-25T02:49:48;10.60;;;3.47;;
29362;SDS011;16349;53.672;10.014;2023-04-25T02:52:15;24.67;;;4.03;;
29362;SDS011;16349;53.672;10.014;2023-04-25T02:54:47;11.43;;;3.20;;
29362;SDS011;16349;53.672;10.014;2023-04-25T02:57:14;8.87;;;3.33;;
29362;SDS011;16349;53.672;10.014;2023-04-25T02:59:42;10.87;;;3.13;;
29362;SDS011;16349;53.672;10.014;2023-04-25T03:02:09;13.63;;;3.10;;
29362;SDS011;16349;53.672;10.014;2023-04-25T03:04:37;14.03;;;3.13;;
29362;SDS011;16349;53.672;10.014;2023-04-25T03:07:03;16.77;;;3.20;;
29362;SDS011;16349;53.672;10.014;2023-04-25T03:09:30;9.13;;;2.63;;
29362;SDS011;16349;53.672;10.014;2023-04-25T03:11:57;11.47;;;2.83;;
29362;SDS011;16349;53.672;10.014;2023-04-25T03:14:24;10.13;;;3.03;;
29362;SDS011;16349;53.672;10.014;2023-04-25T03:16:52;10.27;;;2.90;;
29362;SDS011;16349;53.672;10.014;2023-04-25T03:19:20;11.87;;;2.93;;
29362;SDS011;16349;53.672;10.014;2023-04-25T03:21:47;18.47;;;3.33;;
29362;SDS011;16349;53.672;10.014;2023-04-25T03:24:14;13.50;;;3.00;;
29362;SDS011;16349;53.672;10.014;2023-04-25T03:26:41;10.77;;;2.40;;
29362;SDS011;16349;53.672;10.014;2023-04-25T03:29:08;17.67;;;3.57;;
29362;SDS011;16349;53.672;10.014;2023-04-25T03:31:37;10.77;;;2.67;;
29362;SDS011;16349;53.672;10.014;2023-04-25T03:34:05;11.37;;;2.73;;
29362;SDS011;16349;53.672;10.014;2023-04-25T03:36:32;15.00;;;3.03;;
29362;SDS011;16349;53.672;10.014;2023-04-25T03:38:58;9.57;;;2.60;;
29362;SDS011;16349;53.672;10.014;2023-04-25T03:41:28;14.30;;;2.73;;
29362;SDS011;16349;53.672;10.014;2023-04-25T03:44:00;14.60;;;2.63;;
29362;SDS011;16349;53.672;10.014;2023-04-25T03:46:27;14.27;;;2.77;;
29362;SDS011;16349;53.672;10.014;2023-04-25T03:48:54;8.60;;;2.60;;
29362;SDS011;16349;53.672;10.014;2023-04-25T03:51:28;14.13;;;2.57;;
29362;SDS011;16349;53.672;10.014;2023-04-25T03:53:56;10.27;;;2.77;;
29362;SDS011;16349;53.672;10.014;2023-04-25T03:56:29;18.93;;;3.43;;
29362;SDS011;16349;53.672;10.014;2023-04-25T03:59:04;20.03;;;2.83;;
29362;SDS011;16349;53.672;10.014;2023-04-25T04:01:31;8.40;;;2.53;;
29362;SDS011;16349;53.672;10.014;2023-04-25T04:03:58;12.47;;;2.87;;
29362;SDS011;16349;53.672;10.014;2023-04-25T04:06:26;13.00;;;2.67;;
29362;SDS011;16349;53.672;10.014;2023-04-25T04:09:02;14.83;;;2.50;;
29362;SDS011;16349;53.672;10.014;2023-04-25T04:11:33;10.20;;;3.00;;
29362;SDS011;16349;53.672;10.014;2023-04-25T04:14:02;14.20;;;2.87;;
29362;SDS011;16349;53.672;10.014;2023-04-25T04:16:29;9.90;;;2.30;;
29362;SDS011;16349;53.672;10.014;2023-04-25T04:18:56;14.03;;;2.87;;
29362;SDS011;16349;53.672;10.014;2023-04-25T04:21:23;15.67;;;3.10;;
29362;SDS011;16349;53.672;10.014;2023-04-25T04:23:52;14.97;;;2.73;;
29362;SDS011;16349;53.672;10.014;2023-04-25T04:26:21;10.93;;;2.73;;
29362;SDS011;16349;53.672;10.014;2023-04-25T04:29:06;9.40;;;2.93;;
29362;SDS011;16349;53.672;10.014;2023-04-25T04:31:47;14.47;;;2.63;;
29362;SDS011;16349;53.672;10.014;2023-04-25T04:34:14;16.57;;;2.67;;
29362;SDS011;16349;53.672;10.014;2023-04-25T04:36:41;9.43;;;2.30;;
29362;SDS011;16349;53.672;10.014;2023-04-25T04:39:10;9.10;;;2.40;;
29362;SDS011;16349;53.672;10.014;2023-04-25T04:41:48;8.63;;;2.37;;
29362;SDS011;16349;53.672;10.014;2023-04-25T04:44:42;12.57;;;2.83;;
29362;SDS011;16349;53.672;10.014;2023-04-25T04:47:25;11.57;;;2.90;;
29362;SDS011;16349;53.672;10.014;2023-04-25T04:50:13;12.50;;;2.53;;
29362;SDS011;16349;53.672;10.014;2023-04-25T04:53:05;10.20;;;2.77;;
29362;SDS011;16349;53.672;10.014;2023-04-25T04:55:43;12.27;;;2.40;;
29362;SDS011;16349;53.672;10.014;2023-04-25T04:58:24;11.30;;;2.33;;
29362;SDS011;16349;53.672;10.014;2023-04-25T05:01:06;11.00;;;2.83;;
29362;SDS011;16349;53.672;10.014;2023-04-25T05:04:09;9.30;;;2.07;;
29362;SDS011;16349;53.672;10.014;2023-04-25T05:06:57;9.90;;;3.23;;
29362;SDS011;16349;53.672;10.014;2023-04-25T05:09:42;8.63;;;2.60;;
29362;SDS011;16349;53.672;10.014;2023-04-25T05:12:19;11.03;;;3.03;;
29362;SDS011;16349;53.672;10.014;2023-04-25T05:15:11;11.80;;;2.20;;
29362;SDS011;16349;53.672;10.014;2023-04-25T05:18:02;6.70;;;2.20;;
29362;SDS011;16349;53.672;10.014;2023-04-25T05:20:40;11.97;;;2.80;;
29362;SDS011;16349;53.672;10.014;2023-04-25T05:23:19;10.60;;;2.10;;
29362;SDS011;16349;53.672;10.014;2023-04-25T05:25:57;7.87;;;2.50;;
29362;SDS011;16349;53.672;10.014;2023-04-25T05:28:47;8.27;;;2.27;;
29362;SDS011;16349;53.672;10.014;2023-04-25T05:31:35;8.13;;;2.17;;
29362;SDS011;16349;53.672;10.014;2023-04-25T05:34:12;5.93;;;1.93;;
29362;SDS011;16349;53.672;10.014;2023-04-25T05:37:01;9.53;;;1.97;;
29362;SDS011;16349;53.672;10.014;2023-04-25T05:39:30;11.70;;;2.33;;
29362;SDS011;16349;53.672;10.014;2023-04-25T05:42:30;10.17;;;3.07;;
29362;SDS011;16349;53.672;10.014;2023-04-25T05:45:06;10.50;;;2.13;;
29362;SDS011;16349;53.672;10.014;2023-04-25T05:47:43;11.60;;;2.23;;
29362;SDS011;16349;53.672;10.014;2023-04-25T05:50:16;10.17;;;2.73;;
29362;SDS011;16349;53.672;10.014;2023-04-25T05:53:02;14.17;;;2.60;;
29362;SDS011;16349;53.672;10.014;2023-04-25T05:55:41;8.93;;;1.67;;
29362;SDS011;16349;53.672;10.014;2023-04-25T05:58:18;7.73;;;2.83;;
29362;SDS011;16349;53.672;10.014;2023-04-25T06:00:46;9.50;;;2.17;;
29362;SDS011;16349;53.672;10.014;2023-04-25T06:03:14;6.47;;;1.97;;
29362;SDS011;16349;53.672;10.014;2023-04-25T06:05:42;13.87;;;2.83;;
29362;SDS011;16349;53.672;10.014;2023-04-25T06:08:08;8.43;;;2.77;;
29362;SDS011;16349;53.672;10.014;2023-04-25T06:10:36;6.27;;;2.20;;
29362;SDS011;16349;53.672;10.014;2023-04-25T06:13:04;6.90;;;1.90;;
29362;SDS011;16349;53.672;10.014;2023-04-25T06:15:33;8.13;;;2.30;;
29362;SDS011;16349;53.672;10.014;2023-04-25T06:18:00;6.80;;;2.00;;
29362;SDS011;16349;53.672;10.014;2023-04-25T06:20:28;8.33;;;2.17;;
29362;SDS011;16349;53.672;10.014;2023-04-25T06:22:57;8.53;;;2.20;;
29362;SDS011;16349;53.672;10.014;2023-04-25T06:25:43;12.87;;;2.37;;
29362;SDS011;16349;53.672;10.014;2023-04-25T06:28:11;8.77;;;2.87;;
29362;SDS011;16349;53.672;10.014;2023-04-25T06:30:38;11.00;;;2.30;;
29362;SDS011;16349;53.672;10.014;2023-04-25T06:33:10;7.03;;;2.10;;
29362;SDS011;16349;53.672;10.014;2023-04-25T06:35:40;8.30;;;2.63;;
29362;SDS011;16349;53.672;10.014;2023-04-25T06:38:09;12.13;;;2.37;;
29362;SDS011;16349;53.672;10.014;2023-04-25T06:40:39;8.90;;;2.47;;
29362;SDS011;16349;53.672;10.014;2023-04-25T06:43:08;12.90;;;2.30;;
29362;SDS011;16349;53.672;10.014;2023-04-25T06:45:47;14.03;;;2.77;;
29362;SDS011;16349;53.672;10.014;2023-04-25T06:48:15;11.60;;;2.90;;
29362;SDS011;16349;53.672;10.014;2023-04-25T06:50:43;11.93;;;2.53;;
29362;SDS011;16349;53.672;10.014;2023-04-25T06:53:11;8.07;;;1.97;;
29362;SDS011;16349;53.672;10.014;2023-04-25T06:55:42;5.87;;;2.00;;
29362;SDS011;16349;53.672;10.014;2023-04-25T06:58:17;7.77;;;1.70;;
29362;SDS011;16349;53.672;10.014;2023-04-25T07:01:03;9.87;;;2.57;;
29362;SDS011;16349;53.672;10.014;2023-04-25T07:03:31;10.33;;;2.17;;
29362;SDS011;16349;53.672;10.014;2023-04-25T07:06:04;5.30;;;2.00;;
29362;SDS011;16349;53.672;10.014;2023-04-25T07:08:31;10.57;;;2.60;;
29362;SDS011;16349;53.672;10.014;2023-04-25T07:10:58;9.00;;;3.53;;
29362;SDS011;16349;53.672;10.014;2023-04-25T07:13:26;5.57;;;1.77;;
29362;SDS011;16349;53.672;10.014;2023-04-25T07:15:53;5.63;;;1.90;;
29362;SDS011;16349;53.672;10.014;2023-04-25T07:18:20;7.90;;;1.67;;
29362;SDS011;16349;53.672;10.014;2023-04-25T07:20:48;5.53;;;1.67;;
29362;SDS011;16349;53.672;10.014;2023-04-25T07:23:18;4.07;;;1.63;;
29362;SDS011;16349;53.672;10.014;2023-04-25T07:25:46;7.90;;;1.70;;
29362;SDS011;16349;53.672;10.014;2023-04-25T07:28:16;7.33;;;1.57;;
29362;SDS011;16349;53.672;10.014;2023-04-25T07:30:43;6.27;;;1.40;;
29362;SDS011;16349;53.672;10.014;2023-04-25T07:33:11;3.53;;;1.13;;
29362;SDS011;16349;53.672;10.014;2023-04-25T07:35:38;6.90;;;2.40;;
29362;SDS011;16349;53.672;10.014;2023-04-25T07:38:06;10.73;;;1.80;;
29362;SDS011;16349;53.672;10.014;2023-04-25T07:40:35;19.13;;;2.33;;
29362;SDS011;16349;53.672;10.014;2023-04-25T07:43:05;9.70;;;1.77;;
29362;SDS011;16349;53.672;10.014;2023-04-25T07:45:42;13.43;;;2.17;;
29362;SDS011;16349;53.672;10.014;2023-04-25T07:48:09;6.60;;;1.90;;
29362;SDS011;16349;53.672;10.014;2023-04-25T07:50:37;7.30;;;1.60;;
29362;SDS011;16349;53.672;10.014;2023-04-25T07:53:04;9.33;;;2.93;;
29362;SDS011;16349;53.672;10.014;2023-04-25T07:55:39;8.97;;;2.60;;
29362;SDS011;16349;53.672;10.014;2023-04-25T07:58:16;4.03;;;1.57;;
29362;SDS011;16349;53.672;10.014;2023-04-25T08:00:48;12.87;;;2.50;;
29362;SDS011;16349;53.672;10.014;2023-04-25T08:03:33;15.57;;;2.33;;
29362;SDS011;16349;53.672;10.014;2023-04-25T08:06:02;10.30;;;1.70;;
29362;SDS011;16349;53.672;10.014;2023-04-25T08:08:32;7.77;;;2.77;;
29362;SDS011;16349;53.672;10.014;2023-04-25T08:11:01;7.50;;;2.30;;
29362;SDS011;16349;53.672;10.014;2023-04-25T08:13:27;4.77;;;1.33;;
29362;SDS011;16349;53.672;10.014;2023-04-25T08:15:54;6.93;;;1.60;;
29362;SDS011;16349;53.672;10.014;2023-04-25T08:18:21;6.33;;;1.17;;
29362;SDS011;16349;53.672;10.014;2023-04-25T08:20:49;3.83;;;1.10;;
29362;SDS011;16349;53.672;10.014;2023-04-25T08:23:16;5.03;;;1.03;;
29362;SDS011;16349;53.672;10.014;2023-04-25T08:25:50;3.70;;;0.90;;
29362;SDS011;16349;53.672;10.014;2023-04-25T08:28:22;3.43;;;0.90;;
29362;SDS011;16349;53.672;10.014;2023-04-25T08:30:50;4.23;;;1.03;;
29362;SDS011;16349;53.672;10.014;2023-04-25T08:33:17;2.30;;;1.10;;
29362;SDS011;16349;53.672;10.014;2023-04-25T08:35:55;6.60;;;1.20;;
29362;SDS011;16349;53.672;10.014;2023-04-25T08:38:21;10.10;;;1.83;;
29362;SDS011;16349;53.672;10.014;2023-04-25T08:40:49;6.80;;;1.57;;
29362;SDS011;16349;53.672;10.014;2023-04-25T08:43:19;5.17;;;1.70;;
29362;SDS011;16349;53.672;10.014;2023-04-25T08:45:49;13.60;;;2.30;;
29362;SDS011;16349;53.672;10.014;2023-04-25T08:48:41;5.43;;;1.60;;
29362;SDS011;16349;53.672;10.014;2023-04-25T08:51:10;5.80;;;1.60;;
29362;SDS011;16349;53.672;10.014;2023-04-25T08:53:41;6.40;;;1.73;;
29362;SDS011;16349;53.672;10.014;2023-04-25T08:56:10;7.37;;;2.03;;
29362;SDS011;16349;53.672;10.014;2023-04-25T08:58:44;8.03;;;2.10;;
29362;SDS011;16349;53.672;10.014;2023-04-25T09:01:11;13.63;;;2.73;;
29362;SDS011;16349;53.672;10.014;2023-04-25T09:03:46;10.10;;;2.30;;
29362;SDS011;16349;53.672;10.014;2023-04-25T09:06:14;8.80;;;2.43;;
29362;SDS011;16349;53.672;10.014;2023-04-25T09:08:42;9.13;;;2.23;;
29362;SDS011;16349;53.672;10.014;2023-04-25T09:11:09;7.30;;;1.70;;
29362;SDS011;16349;53.672;10.014;2023-04-25T09:13:37;4.97;;;1.70;;
29362;SDS011;16349;53.672;10.014;2023-04-25T09:16:26;8.90;;;1.60;;
29362;SDS011;16349;53.672;10.014;2023-04-25T09:19:20;5.07;;;1.77;;
29362;SDS011;16349;53.672;10.014;2023-04-25T09:21:48;7.60;;;1.57;;
29362;SDS011;16349;53.672;10.014;2023-04-25T09:24:15;5.60;;;1.20;;
29362;SDS011;16349;53.672;10.014;2023-04-25T09:26:42;9.97;;;1.63;;
29362;SDS011;16349;53.672;10.014;2023-04-25T09:29:09;9.40;;;2.17;;
29362;SDS011;16349;53.672;10.014;2023-04-25T09:31:41;7.67;;;1.67;;
29362;SDS011;16349;53.672;10.014;2023-04-25T09:34:10;5.20;;;1.27;;
29362;SDS011;16349;53.672;10.014;2023-04-25T09:36:43;9.73;;;1.67;;
29362;SDS011;16349;53.672;10.014;2023-04-25T09:39:21;4.73;;;1.40;;
29362;SDS011;16349;53.672;10.014;2023-04-25T09:41:57;9.60;;;2.30;;
29362;SDS011;16349;53.672;10.014;2023-04-25T09:44:24;4.57;;;1.40;;
29362;SDS011;16349;53.672;10.014;2023-04-25T09:46:55;7.93;;;1.60;;
29362;SDS011;16349;53.672;10.014;2023-04-25T09:49:25;6.73;;;1.50;;
29362;SDS011;16349;53.672;10.014;2023-04-25T09:52:08;5.77;;;1.37;;
29362;SDS011;16349;53.672;10.014;2023-04-25T09:54:54;8.33;;;1.53;;
29362;SDS011;16349;53.672;10.014;2023-04-25T09:57:28;10.13;;;1.30;;
29362;SDS011;16349;53.672;10.014;2023-04-25T09:59:57;7.57;;;1.43;;
29362;SDS011;16349;53.672;10.014;2023-04-25T10:02:40;6.77;;;1.27;;
29362;SDS011;16349;53.672;10.014;2023-04-25T10:05:23;5.30;;;1.60;;
29362;SDS011;16349;53.672;10.014;2023-04-25T10:07:53;4.20;;;1.17;;
29362;SDS011;16349;53.672;10.014;2023-04-25T10:10:21;6.07;;;1.50;;
29362;SDS011;16349;53.672;10.014;2023-04-25T10:12:50;4.43;;;0.80;;
29362;SDS011;16349;53.672;10.014;2023-04-25T10:15:18;2.83;;;0.77;;
29362;SDS011;16349;53.672;10.014;2023-04-25T10:17:47;6.63;;;1.00;;
29362;SDS011;16349;53.672;10.014;2023-04-25T10:20:15;6.67;;;0.90;;
29362;SDS011;16349;53.672;10.014;2023-04-25T10:22:44;3.50;;;1.23;;
29362;SDS011;16349;53.672;10.014;2023-04-25T10:25:13;3.27;;;1.00;;
29362;SDS011;16349;53.672;10.014;2023-04-25T10:27:40;4.00;;;1.00;;
29362;SDS011;16349;53.672;10.014;2023-04-25T10:30:08;8.43;;;1.90;;
29362;SDS011;16349;53.672;10.014;2023-04-25T10:32:37;12.30;;;1.37;;
29362;SDS011;16349;53.672;10.014;2023-04-25T10:35:13;6.73;;;1.40;;
29362;SDS011;16349;53.672;10.014;2023-04-25T10:37:57;8.67;;;1.50;;
29362;SDS011;16349;53.672;10.014;2023-04-25T10:40:25;4.23;;;1.40;;
29362;SDS011;16349;53.672;10.014;2023-04-25T10:42:52;5.93;;;1.37;;
29362;SDS011;16349;53.672;10.014;2023-04-25T10:45:19;9.83;;;1.53;;
29362;SDS011;16349;53.672;10.014;2023-04-25T10:47:46;6.20;;;1.47;;
29362;SDS011;16349;53.672;10.014;2023-04-25T10:50:15;5.43;;;0.83;;
29362;SDS011;16349;53.672;10.014;2023-04-25T10:52:42;2.73;;;0.70;;
29362;SDS011;16349;53.672;10.014;2023-04-25T10:55:09;3.23;;;0.90;;
29362;SDS011;16349;53.672;10.014;2023-04-25T10:57:37;5.33;;;1.17;;
29362;SDS011;16349;53.672;10.014;2023-04-25T11:00:07;3.30;;;1.10;;
29362;SDS011;16349;53.672;10.014;2023-04-25T11:02:37;3.60;;;1.23;;
29362;SDS011;16349;53.672;10.014;2023-04-25T11:05:08;7.80;;;1.80;;
29362;SDS011;16349;53.672;10.014;2023-04-25T11:07:43;5.07;;;1.47;;
29362;SDS011;16349;53.672;10.014;2023-04-25T11:10:16;2.50;;;0.60;;
29362;SDS011;16349;53.672;10.014;2023-04-25T11:12:44;2.70;;;1.07;;
29362;SDS011;16349;53.672;10.014;2023-04-25T11:15:11;4.40;;;1.13;;
29362;SDS011;16349;53.672;10.014;2023-04-25T11:17:38;7.60;;;1.43;;
29362;SDS011;16349;53.672;10.014;2023-04-25T11:20:06;3.27;;;1.20;;
29362;SDS011;16349;53.672;10.014;2023-04-25T11:22:37;4.97;;;0.90;;
29362;SDS011;16349;53.672;10.014;2023-04-25T11:25:07;3.80;;;1.00;;
29362;SDS011;16349;53.672;10.014;2023-04-25T11:27:48;4.00;;;1.27;;
29362;SDS011;16349;53.672;10.014;2023-04-25T11:30:16;3.53;;;0.90;;
29362;SDS011;16349;53.672;10.014;2023-04-25T11:32:43;7.27;;;1.13;;
29362;SDS011;16349;53.672;10.014;2023-04-25T11:35:10;5.60;;;1.20;;
29362;SDS011;16349;53.672;10.014;2023-04-25T11:37:38;4.50;;;1.20;;
29362;SDS011;16349;53.672;10.014;2023-04-25T11:40:07;7.83;;;1.37;;
29362;SDS011;16349;53.672;10.014;2023-04-25T11:42:36;5.93;;;1.40;;
29362;SDS011;16349;53.672;10.014;2023-04-25T11:45:05;3.77;;;1.30;;
29362;SDS011;16349;53.672;10.014;2023-04-25T11:47:33;6.20;;;1.30;;
29362;SDS011;16349;53.672;10.014;2023-04-25T11:50:00;3.53;;;0.90;;
29362;SDS011;16349;53.672;10.014;2023-04-25T11:52:37;1.37;;;0.70;;
29362;SDS011;16349;53.672;10.014;2023-04-25T11:55:07;2.53;;;0.93;;
29362;SDS011;16349;53.672;10.014;2023-04-25T11:57:36;4.60;;;0.80;;
29362;SDS011;16349;53.672;10.014;2023-04-25T12:00:05;6.23;;;1.20;;
29362;SDS011;16349;53.672;10.014;2023-04-25T12:02:37;2.37;;;1.40;;
29362;SDS011;16349;53.672;10.014;2023-04-25T12:05:06;4.77;;;0.83;;
29362;SDS011;16349;53.672;10.014;2023-04-25T12:07:34;5.97;;;0.53;;
29362;SDS011;16349;53.672;10.014;2023-04-25T12:10:04;3.70;;;0.90;;
29362;SDS011;16349;53.672;10.014;2023-04-25T12:12:33;5.60;;;0.87;;
29362;SDS011;16349;53.672;10.014;2023-04-25T12:15:13;8.57;;;1.67;;
29362;SDS011;16349;53.672;10.014;2023-04-25T12:17:44;3.90;;;1.27;;
29362;SDS011;16349;53.672;10.014;2023-04-25T12:20:12;5.47;;;1.00;;
29362;SDS011;16349;53.672;10.014;2023-04-25T12:22:40;5.17;;;1.10;;
29362;SDS011;16349;53.672;10.014;2023-04-25T12:25:11;5.63;;;1.10;;
29362;SDS011;16349;53.672;10.014;2023-04-25T12:27:38;3.17;;;1.47;;
29362;SDS011;16349;53.672;10.014;2023-04-25T12:30:07;3.17;;;1.20;;
29362;SDS011;16349;53.672;10.014;2023-04-25T12:32:35;3.47;;;1.00;;
29362;SDS011;16349;53.672;10.014;2023-04-25T12:35:03;4.37;;;1.30;;
29362;SDS011;16349;53.672;10.014;2023-04-25T12:37:30;1.50;;;0.70;;
29362;SDS011;16349;53.672;10.014;2023-04-25T12:39:57;3.80;;;1.17;;
29362;SDS011;16349;53.672;10.014;2023-04-25T12:42:25;5.53;;;1.47;;
29362;SDS011;16349;53.672;10.014;2023-04-25T12:44:52;13.60;;;1.43;;
29362;SDS011;16349;53.672;10.014;2023-04-25T12:47:18;5.97;;;1.10;;
29362;SDS011;16349;53.672;10.014;2023-04-25T12:49:46;4.40;;;1.23;;
29362;SDS011;16349;53.672;10.014;2023-04-25T12:52:12;1.50;;;0.87;;
29362;SDS011;16349;53.672;10.014;2023-04-25T12:54:39;8.40;;;1.93;;
29362;SDS011;16349;53.672;10.014;2023-04-25T12:57:07;5.93;;;1.07;;
29362;SDS011;16349;53.672;10.014;2023-04-25T12:59:35;4.17;;;1.40;;
29362;SDS011;16349;53.672;10.014;2023-04-25T13:02:01;5.93;;;1.43;;
29362;SDS011;16349;53.672;10.014;2023-04-25T13:04:28;4.10;;;1.10;;
29362;SDS011;16349;53.672;10.014;2023-04-25T13:06:55;4.43;;;0.83;;
29362;SDS011;16349;53.672;10.014;2023-04-25T13:09:22;4.10;;;0.90;;
29362;SDS011;16349;53.672;10.014;2023-04-25T13:11:48;3.07;;;0.83;;
29362;SDS011;16349;53.672;10.014;2023-04-25T13:14:15;7.60;;;1.10;;
29362;SDS011;16349;53.672;10.014;2023-04-25T13:16:43;2.40;;;1.23;;
29362;SDS011;16349;53.672;10.014;2023-04-25T13:19:11;4.57;;;1.33;;
29362;SDS011;16349;53.672;10.014;2023-04-25T13:21:37;7.40;;;1.53;;
29362;SDS011;16349;53.672;10.014;2023-04-25T13:24:05;6.57;;;1.20;;
29362;SDS011;16349;53.672;10.014;2023-04-25T13:26:32;5.53;;;1.60;;
29362;SDS011;16349;53.672;10.014;2023-04-25T13:28:59;4.10;;;1.30;;
29362;SDS011;16349;53.672;10.014;2023-04-25T13:31:28;6.40;;;1.47;;
29362;SDS011;16349;53.672;10.014;2023-04-25T13:33:56;5.43;;;1.50;;
29362;SDS011;16349;53.672;10.014;2023-04-25T13:36:23;3.80;;;1.30;;
29362;SDS011;16349;53.672;10.014;2023-04-25T13:38:50;3.43;;;1.00;;
29362;SDS011;16349;53.672;10.014;2023-04-25T13:41:17;2.50;;;1.20;;
29362;SDS011;16349;53.672;10.014;2023-04-25T13:43:45;5.50;;;1.50;;
29362;SDS011;16349;53.672;10.014;2023-04-25T13:46:13;8.13;;;1.97;;
29362;SDS011;16349;53.672;10.014;2023-04-25T13:48:40;8.57;;;1.47;;
29362;SDS011;16349;53.672;10.014;2023-04-25T13:51:13;4.47;;;1.13;;
29362;SDS011;16349;53.672;10.014;2023-04-25T13:53:42;3.53;;;1.30;;
29362;SDS011;16349;53.672;10.014;2023-04-25T13:56:09;5.67;;;1.50;;
29362;SDS011;16349;53.672;10.014;2023-04-25T13:58:37;3.93;;;1.10;;
29362;SDS011;16349;53.672;10.014;2023-04-25T14:01:03;7.37;;;1.50;;
29362;SDS011;16349;53.672;10.014;2023-04-25T14:03:30;3.80;;;1.23;;
29362;SDS011;16349;53.672;10.014;2023-04-25T14:05:57;5.03;;;1.20;;
29362;SDS011;16349;53.672;10.014;2023-04-25T14:08:26;5.53;;;1.53;;
29362;SDS011;16349;53.672;10.014;2023-04-25T14:10:53;7.80;;;1.53;;
29362;SDS011;16349;53.672;10.014;2023-04-25T14:13:20;2.40;;;1.03;;
29362;SDS011;16349;53.672;10.014;2023-04-25T14:15:48;2.47;;;0.80;;
29362;SDS011;16349;53.672;10.014;2023-04-25T14:18:15;3.40;;;1.23;;
29362;SDS011;16349;53.672;10.014;2023-04-25T14:20:43;4.17;;;1.00;;
29362;SDS011;16349;53.672;10.014;2023-04-25T14:23:10;6.67;;;1.60;;
29362;SDS011;16349;53.672;10.014;2023-04-25T14:25:38;4.37;;;1.10;;
29362;SDS011;16349;53.672;10.014;2023-04-25T14:28:05;4.97;;;1.00;;
29362;SDS011;16349;53.672;10.014;2023-04-25T14:30:32;7.13;;;1.17;;
29362;SDS011;16349;53.672;10.014;2023-04-25T14:32:59;5.27;;;1.30;;
29362;SDS011;16349;53.672;10.014;2023-04-25T14:35:25;5.10;;;1.10;;
29362;SDS011;16349;53.672;10.014;2023-04-25T14:37:53;4.70;;;1.10;;
29362;SDS011;16349;53.672;10.014;2023-04-25T14:40:20;5.70;;;1.57;;
29362;SDS011;16349;53.672;10.014;2023-04-25T14:42:49;4.20;;;1.13;;
29362;SDS011;16349;53.672;10.014;2023-04-25T14:45:16;4.83;;;1.20;;
29362;SDS011;16349;53.672;10.014;2023-04-25T14:47:43;6.93;;;1.27;;